Wednesday, June 20, 2018, 10:48 AM EDT
Back to Local

KBAF, Westfield Barnes Municipal

Location: Westfield, MA, United States Lat: 42.167
Local Time: 10:48 AM EDT (14:48 GMT) Lon: -72.717
Time Zone: US/Eastern Elev: 272 ft

Show me the last for .
Show Decoded

2018-06-20 09:53 METAR KBAF 201353Z 00000KT 10SM CLR 21/11 A2990 RMK AO2 SLP124 T02060111 =
2018-06-20 08:53 METAR KBAF 201253Z 34003KT 10SM CLR 20/12 A2992 RMK AO2 SLP131 T02000122 =
2018-06-20 07:53 METAR KBAF 201153Z 00000KT 10SM CLR 17/13 A2993 RMK AO2 SLP135 T01720133 10172
                 20106 51011 =
2018-06-20 06:53 METAR KBAF 201053Z 36003KT 10SM CLR 16/13 A2993 RMK AO2 SLP132 T01560133 =
2018-06-20 05:53 METAR KBAF 200953Z AUTO 00000KT 10SM CLR 11/11 A2992 RMK AO2 SLP130 T01110111 =
2018-06-20 04:53 METAR KBAF 200853Z AUTO 00000KT 10SM CLR 11/11 A2990 RMK AO2 SLP124 T01110111
                 55001 =
2018-06-20 03:53 METAR KBAF 200753Z AUTO 00000KT 10SM CLR 12/12 A2990 RMK AO2 SLP123 T01220117 =
2018-06-20 02:53 METAR KBAF 200653Z AUTO 03003KT 10SM CLR 13/12 A2989 RMK AO2 SLP122 T01280122 =
2018-06-20 01:53 METAR KBAF 200553Z AUTO 00000KT 10SM CLR 14/13 A2990 RMK AO2 SLP124 T01440133
                 10239 20133 51005 =
2018-06-20 00:53 METAR KBAF 200453Z AUTO 00000KT 10SM CLR 14/13 A2990 RMK AO2 SLP123 T01440133
                 402890144 =
2018-06-19 23:53 METAR KBAF 200353Z AUTO 00000KT 10SM CLR 16/13 A2990 RMK AO2 SLP122 T01560128 =
2018-06-19 22:53 METAR KBAF 200253Z AUTO 31005KT 10SM CLR 17/12 A2989 RMK AO2 SLP119 T01720122
                 51017 =
2018-06-19 21:53 METAR KBAF 200153Z 01003KT 10SM CLR 18/13 A2988 RMK AO2 SLP115 T01780128 =
2018-06-19 20:53 METAR KBAF 200053Z 02004KT 10SM CLR 21/11 A2986 RMK AO2 SLP110 T02110111 =
2018-06-19 19:53 METAR KBAF 192353Z 33007KT 10SM CLR 24/11 A2984 RMK AO2 SLP101 T02390106 10289
                 20239 53014 =
2018-06-19 18:53 METAR KBAF 192253Z 33011KT 10SM CLR 27/11 A2982 RMK AO2 SLP096 T02670111 =
2018-06-19 17:53 METAR KBAF 192153Z 33011KT 10SM CLR 28/11 A2981 RMK AO2 SLP090 T02780111 =
2018-06-19 16:53 METAR KBAF 192053Z 31011G18KT 10SM CLR 28/12 A2980 RMK AO2 WSHFT 1942 SLP087
                 T02830117 53001 =
2018-06-19 16:02 METAR KBAF 192002Z 32011G18KT 10SM CLR 28/11 A2979 RMK AO2 WSHFT 1942 T02830111
                 =
2018-06-19 15:53 METAR KBAF 191953Z 29011KT 10SM CLR 28/11 A2979 RMK AO2 SLP086 T02830111 =
2018-06-19 14:53 METAR KBAF 191853Z 33007G21KT 10SM CLR 28/12 A2980 RMK AO2 SLP086 T02780117 =
2018-06-19 13:53 METAR KBAF 191753Z 32012KT 10SM CLR 28/11 A2979 RMK AO2 SLP086 T02780111 10278
                 20233 53000 =
2018-06-19 12:53 METAR KBAF 191653Z 35016G24KT 10SM CLR 27/11 A2979 RMK AO2 SLP085 T02720111 =
2018-06-19 11:53 METAR KBAF 191553Z 34013KT 10SM CLR 27/14 A2979 RMK AO2 SLP085 T02720139 =
2018-06-19 10:53 METAR KBAF 191453Z 01014KT 10SM CLR 26/14 A2979 RMK AO2 SLP086 T02610139 50008 =

Support USWX by starting your Amazon purchase here.